PWSweather.com
Personal Weather Stations
Station Observations
UPSTATEWEATHER
Silver Leaf, Greer, SC 29650

Silver LeafGreer, SC 29650

Lat: 34.8955792, Lon: -82.2868211

Elevation: 875

Station Type: Davis Vantage Vue

https://www.upstateweather.com

High Low Average
Temperature 88.2°F31.2°C 68.7°F20.4°C 79.0°F26.1°C
Dew Point 74.7°F23.7°C 67.1°F19.5°C 70.7°F21.5°C
Winds 2.3 mph 3.7 kmh Calm Calm Calm Calm
Wind Gusts 2.3 mph3.7 kmh -- --
Humidity 96% 50% 77%
Pressure 29.91 in1012.9 mb 29.83 in1010.2 mb -
Precipitation 0.00 in0.0 mm - -
Hour Temp Dew Point Humidity Winds Wind Gusts Pressure Precip Precip Rate Daily Precip Total
12:00 AM 75.1°F23.9°C 71.6°F22.0°C 89% Calm Calm -- 29.85 in1010.8 mb - 0.00 in0.0 mm 0.00 in0.0 mm
12:15 AM 74.3°F23.5°C 71.2°F21.8°C 90% Calm Calm -- 29.85 in1010.8 mb - 0.00 in0.0 mm 0.00 in0.0 mm
12:30 AM 74.2°F23.4°C 71.1°F21.7°C 90% Calm Calm -- 29.85 in1010.8 mb - 0.00 in0.0 mm 0.00 in0.0 mm
12:45 AM 74.1°F23.4°C 71.0°F21.7°C 90% Calm Calm -- 29.85 in1010.8 mb - 0.00 in0.0 mm 0.00 in0.0 mm
01:00 AM 73.9°F23.3°C 71.1°F21.7°C 91% Calm Calm -- 29.84 in1010.5 mb - 0.00 in0.0 mm 0.00 in0.0 mm
01:15 AM 73.6°F23.1°C 71.1°F21.7°C 92% Calm Calm -- 29.84 in1010.5 mb - 0.00 in0.0 mm 0.00 in0.0 mm
01:30 AM 73.4°F23.0°C 71.3°F21.8°C 93% Calm Calm -- 29.84 in1010.5 mb - 0.00 in0.0 mm 0.00 in0.0 mm
01:45 AM 73.5°F23.1°C 71.0°F21.7°C 92% Calm Calm -- 29.84 in1010.5 mb - 0.00 in0.0 mm 0.00 in0.0 mm
02:00 AM 73.7°F23.2°C 70.9°F21.6°C 91% Calm Calm -- 29.83 in1010.2 mb - 0.00 in0.0 mm 0.00 in0.0 mm
02:15 AM 74.0°F23.3°C 71.5°F21.9°C 92% Calm Calm -- 29.83 in1010.2 mb - 0.00 in0.0 mm 0.00 in0.0 mm
02:30 AM 73.2°F22.9°C 70.7°F21.5°C 92% Calm Calm -- 29.83 in1010.2 mb - 0.00 in0.0 mm 0.00 in0.0 mm
02:45 AM 72.5°F22.5°C 70.4°F21.3°C 93% Calm Calm -- 29.83 in1010.2 mb - 0.00 in0.0 mm 0.00 in0.0 mm
03:00 AM 71.8°F22.1°C 69.7°F20.9°C 93% Calm Calm -- 29.84 in1010.5 mb - 0.00 in0.0 mm 0.00 in0.0 mm
03:15 AM 71.4°F21.9°C 69.6°F20.9°C 94% Calm Calm -- 29.84 in1010.5 mb - 0.00 in0.0 mm 0.00 in0.0 mm
03:30 AM 71.2°F21.8°C 69.4°F20.8°C 94% Calm Calm -- 29.84 in1010.5 mb - 0.00 in0.0 mm 0.00 in0.0 mm
03:45 AM 70.9°F21.6°C 69.1°F20.6°C 94% Calm Calm -- 29.84 in1010.5 mb - 0.00 in0.0 mm 0.00 in0.0 mm
04:00 AM 70.7°F21.5°C 68.9°F20.5°C 94% Calm Calm -- 29.84 in1010.5 mb - 0.00 in0.0 mm 0.00 in0.0 mm
04:15 AM 70.4°F21.3°C 68.6°F20.3°C 94% Calm Calm -- 29.84 in1010.5 mb - 0.00 in0.0 mm 0.00 in0.0 mm
04:30 AM 70.4°F21.3°C 68.9°F20.5°C 95% Calm Calm -- 29.84 in1010.5 mb - 0.00 in0.0 mm 0.00 in0.0 mm
04:45 AM 70.1°F21.2°C 68.6°F20.3°C 95% Calm Calm -- 29.84 in1010.5 mb - 0.00 in0.0 mm 0.00 in0.0 mm
05:00 AM 69.9°F21.1°C 68.4°F20.2°C 95% Calm Calm -- 29.84 in1010.5 mb - 0.00 in0.0 mm 0.00 in0.0 mm
05:15 AM 69.7°F20.9°C 68.2°F20.1°C 95% Calm Calm -- 29.84 in1010.5 mb - 0.00 in0.0 mm 0.00 in0.0 mm
05:30 AM 69.3°F20.7°C 67.8°F19.9°C 95% Calm Calm -- 29.85 in1010.8 mb - 0.00 in0.0 mm 0.00 in0.0 mm
05:45 AM 68.9°F20.5°C 67.7°F19.8°C 96% Calm Calm -- 29.85 in1010.8 mb - 0.00 in0.0 mm 0.00 in0.0 mm
06:00 AM 68.7°F20.4°C 67.5°F19.7°C 96% Calm Calm -- 29.86 in1011.2 mb - 0.00 in0.0 mm 0.00 in0.0 mm
06:15 AM 68.7°F20.4°C 67.6°F19.8°C 96% Calm Calm -- 29.86 in1011.2 mb - 0.00 in0.0 mm 0.00 in0.0 mm
06:30 AM 69.0°F20.6°C 67.8°F19.9°C 96% Calm Calm -- 29.86 in1011.2 mb - 0.00 in0.0 mm 0.00 in0.0 mm
06:45 AM 69.3°F20.7°C 68.1°F20.1°C 96% Calm Calm -- 29.87 in1011.5 mb - 0.00 in0.0 mm 0.00 in0.0 mm
07:00 AM 69.6°F20.9°C 68.4°F20.2°C 96% Calm Calm -- 29.87 in1011.5 mb - 0.00 in0.0 mm 0.00 in0.0 mm
07:15 AM 70.2°F21.2°C 68.7°F20.4°C 95% Calm Calm -- 29.88 in1011.9 mb - 0.00 in0.0 mm 0.00 in0.0 mm
07:30 AM 71.2°F21.8°C 69.7°F20.9°C 95% Calm Calm -- 29.88 in1011.9 mb - 0.00 in0.0 mm 0.00 in0.0 mm
07:45 AM 72.6°F22.6°C 70.8°F21.6°C 94% Calm Calm -- 29.88 in1011.9 mb - 0.00 in0.0 mm 0.00 in0.0 mm
08:00 AM 74.7°F23.7°C 71.9°F22.2°C 91% Calm Calm -- 29.88 in1011.9 mb - 0.00 in0.0 mm 0.00 in0.0 mm
08:15 AM 77.7°F25.4°C 72.8°F22.7°C 85% Calm Calm -- 29.89 in1012.2 mb - 0.00 in0.0 mm 0.00 in0.0 mm
08:30 AM 79.6°F26.4°C 74.7°F23.7°C 85% Calm Calm -- 29.89 in1012.2 mb - 0.00 in0.0 mm 0.00 in0.0 mm
08:45 AM 81.1°F27.3°C 74.3°F23.5°C 80% Calm Calm -- 29.89 in1012.2 mb - 0.00 in0.0 mm 0.00 in0.0 mm
09:00 AM 81.8°F27.7°C 73.5°F23.1°C 76% Calm Calm -- 29.89 in1012.2 mb - 0.00 in0.0 mm 0.00 in0.0 mm
09:15 AM 81.2°F27.3°C 73.7°F23.2°C 78% Calm Calm -- 29.89 in1012.2 mb - 0.00 in0.0 mm 0.00 in0.0 mm
09:30 AM 81.4°F27.4°C 72.3°F22.4°C 74% Calm Calm -- 29.89 in1012.2 mb - 0.00 in0.0 mm 0.00 in0.0 mm
09:45 AM 82.1°F27.8°C 73.0°F22.8°C 74% Calm Calm -- 29.89 in1012.2 mb - 0.00 in0.0 mm 0.00 in0.0 mm
10:00 AM 83.1°F28.4°C 72.3°F22.4°C 70% 1.2 mph N1.9 kmh N 2.3 mph3.7 kmh 29.89 in1012.2 mb - 0.00 in0.0 mm 0.00 in0.0 mm
10:15 AM 82.8°F28.2°C 70.7°F21.5°C 67% Calm Calm 1.2 mph1.9 kmh 29.89 in1012.2 mb - 0.00 in0.0 mm 0.00 in0.0 mm
10:30 AM 83.6°F28.7°C 71.0°F21.7°C 66% Calm Calm -- 29.89 in1012.2 mb - 0.00 in0.0 mm 0.00 in0.0 mm
10:45 AM 83.9°F28.8°C 70.4°F21.3°C 64% Calm Calm 1.2 mph1.9 kmh 29.89 in1012.2 mb - 0.00 in0.0 mm 0.00 in0.0 mm
11:00 AM 84.3°F29.1°C 70.3°F21.3°C 63% Calm Calm -- 29.89 in1012.2 mb - 0.00 in0.0 mm 0.00 in0.0 mm
11:15 AM 85.0°F29.4°C 69.1°F20.6°C 59% Calm Calm -- 29.88 in1011.9 mb - 0.00 in0.0 mm 0.00 in0.0 mm
11:30 AM 85.1°F29.5°C 68.6°F20.3°C 58% Calm Calm -- 29.88 in1011.9 mb - 0.00 in0.0 mm 0.00 in0.0 mm
11:45 AM 85.6°F29.8°C 70.1°F21.2°C 60% Calm Calm -- 29.89 in1012.2 mb - 0.00 in0.0 mm 0.00 in0.0 mm
12:00 PM 85.7°F29.8°C 69.3°F20.7°C 58% Calm Calm -- 29.89 in1012.2 mb - 0.00 in0.0 mm 0.00 in0.0 mm
12:15 PM 86.3°F30.2°C 69.8°F21.0°C 58% 2.3 mph 3.7 kmh 2.3 mph3.7 kmh 29.89 in1012.2 mb - 0.00 in0.0 mm 0.00 in0.0 mm
12:30 PM 86.6°F30.3°C 69.0°F20.6°C 56% Calm Calm 2.3 mph3.7 kmh 29.88 in1011.9 mb - 0.00 in0.0 mm 0.00 in0.0 mm
12:45 PM 87.4°F30.8°C 70.3°F21.3°C 57% Calm Calm -- 29.88 in1011.9 mb - 0.00 in0.0 mm 0.00 in0.0 mm
01:00 PM 87.6°F30.9°C 68.9°F20.5°C 54% Calm Calm -- 29.89 in1012.2 mb - 0.00 in0.0 mm 0.00 in0.0 mm
01:15 PM 87.8°F31.0°C 69.1°F20.6°C 54% Calm Calm 1.2 mph1.9 kmh 29.88 in1011.9 mb - 0.00 in0.0 mm 0.00 in0.0 mm
01:30 PM 88.1°F31.2°C 67.1°F19.5°C 50% 2.3 mph 3.7 kmh 2.3 mph3.7 kmh 29.88 in1011.9 mb - 0.00 in0.0 mm 0.00 in0.0 mm
01:45 PM 88.2°F31.2°C 67.8°F19.9°C 51% Calm Calm -- 29.88 in1011.9 mb - 0.00 in0.0 mm 0.00 in0.0 mm
02:00 PM 87.9°F31.1°C 70.2°F21.2°C 56% Calm Calm -- 29.87 in1011.5 mb - 0.00 in0.0 mm 0.00 in0.0 mm
02:15 PM 86.4°F30.2°C 71.9°F22.2°C 62% Calm Calm -- 29.87 in1011.5 mb - 0.00 in0.0 mm 0.00 in0.0 mm
02:30 PM 86.3°F30.2°C 70.8°F21.6°C 60% Calm Calm -- 29.86 in1011.2 mb - 0.00 in0.0 mm 0.00 in0.0 mm
02:45 PM 87.3°F30.7°C 70.2°F21.2°C 57% Calm Calm -- 29.86 in1011.2 mb - 0.00 in0.0 mm 0.00 in0.0 mm
03:00 PM 87.0°F30.6°C 69.9°F21.1°C 57% Calm Calm -- 29.85 in1010.8 mb - 0.00 in0.0 mm 0.00 in0.0 mm
03:15 PM 86.6°F30.3°C 71.1°F21.7°C 60% Calm Calm -- 29.84 in1010.5 mb - 0.00 in0.0 mm 0.00 in0.0 mm
03:30 PM 86.7°F30.4°C 69.7°F20.9°C 57% Calm Calm -- 29.84 in1010.5 mb - 0.00 in0.0 mm 0.00 in0.0 mm
03:45 PM 86.8°F30.4°C 71.3°F21.8°C 60% Calm Calm -- 29.84 in1010.5 mb - 0.00 in0.0 mm 0.00 in0.0 mm
04:00 PM 86.3°F30.2°C 72.2°F22.3°C 63% Calm Calm -- 29.84 in1010.5 mb - 0.00 in0.0 mm 0.00 in0.0 mm
04:15 PM 86.2°F30.1°C 73.5°F23.1°C 66% Calm Calm -- 29.83 in1010.2 mb - 0.00 in0.0 mm 0.00 in0.0 mm
04:30 PM 86.4°F30.2°C 74.6°F23.7°C 68% Calm Calm -- 29.84 in1010.5 mb - 0.00 in0.0 mm 0.00 in0.0 mm
04:45 PM 85.9°F29.9°C 72.8°F22.7°C 65% Calm Calm -- 29.84 in1010.5 mb - 0.00 in0.0 mm 0.00 in0.0 mm
05:00 PM 85.5°F29.7°C 72.8°F22.7°C 66% Calm Calm -- 29.83 in1010.2 mb - 0.00 in0.0 mm 0.00 in0.0 mm
05:15 PM 85.4°F29.7°C 72.3°F22.4°C 65% Calm Calm -- 29.84 in1010.5 mb - 0.00 in0.0 mm 0.00 in0.0 mm
05:30 PM 85.2°F29.6°C 72.6°F22.6°C 66% Calm Calm -- 29.84 in1010.5 mb - 0.00 in0.0 mm 0.00 in0.0 mm
05:45 PM 84.8°F29.3°C 72.2°F22.3°C 66% Calm Calm -- 29.84 in1010.5 mb - 0.00 in0.0 mm 0.00 in0.0 mm
06:00 PM 84.6°F29.2°C 71.9°F22.2°C 66% Calm Calm -- 29.84 in1010.5 mb - 0.00 in0.0 mm 0.00 in0.0 mm
06:15 PM 84.2°F29.0°C 72.0°F22.2°C 67% Calm Calm -- 29.84 in1010.5 mb - 0.00 in0.0 mm 0.00 in0.0 mm
06:30 PM 83.7°F28.7°C 72.4°F22.4°C 69% Calm Calm -- 29.85 in1010.8 mb - 0.00 in0.0 mm 0.00 in0.0 mm
06:45 PM 83.4°F28.6°C 72.2°F22.3°C 69% Calm Calm -- 29.86 in1011.2 mb - 0.00 in0.0 mm 0.00 in0.0 mm
07:00 PM 83.1°F28.4°C 73.5°F23.1°C 73% Calm Calm 1.2 mph1.9 kmh 29.86 in1011.2 mb - 0.00 in0.0 mm 0.00 in0.0 mm
07:15 PM 82.1°F27.8°C 74.2°F23.4°C 77% Calm Calm -- 29.86 in1011.2 mb - 0.00 in0.0 mm 0.00 in0.0 mm
07:30 PM 81.6°F27.6°C 73.7°F23.2°C 77% Calm Calm -- 29.87 in1011.5 mb - 0.00 in0.0 mm 0.00 in0.0 mm
07:45 PM 81.5°F27.5°C 73.2°F22.9°C 76% Calm Calm -- 29.87 in1011.5 mb - 0.00 in0.0 mm 0.00 in0.0 mm
08:00 PM 81.1°F27.3°C 72.8°F22.7°C 76% Calm Calm -- 29.87 in1011.5 mb - 0.00 in0.0 mm 0.00 in0.0 mm
08:15 PM 80.4°F26.9°C 72.1°F22.3°C 76% Calm Calm -- 29.88 in1011.9 mb - 0.00 in0.0 mm 0.00 in0.0 mm
08:30 PM 79.9°F26.6°C 71.3°F21.8°C 75% Calm Calm -- 29.88 in1011.9 mb - 0.00 in0.0 mm 0.00 in0.0 mm
08:45 PM 79.5°F26.4°C 71.3°F21.8°C 76% Calm Calm -- 29.89 in1012.2 mb - 0.00 in0.0 mm 0.00 in0.0 mm
09:00 PM 78.7°F25.9°C 71.6°F22.0°C 79% Calm Calm -- 29.89 in1012.2 mb - 0.00 in0.0 mm 0.00 in0.0 mm
09:15 PM 78.3°F25.7°C 72.0°F22.2°C 81% Calm Calm -- 29.89 in1012.2 mb - 0.00 in0.0 mm 0.00 in0.0 mm
09:30 PM 77.7°F25.4°C 71.0°F21.7°C 80% Calm Calm -- 29.89 in1012.2 mb - 0.00 in0.0 mm 0.00 in0.0 mm
09:45 PM 77.4°F25.2°C 70.7°F21.5°C 80% Calm Calm -- 29.90 in1012.5 mb - 0.00 in0.0 mm 0.00 in0.0 mm
10:00 PM 76.6°F24.8°C 70.4°F21.3°C 81% Calm Calm -- 29.90 in1012.5 mb - 0.00 in0.0 mm 0.00 in0.0 mm
10:15 PM 76.2°F24.6°C 69.6°F20.9°C 80% Calm Calm -- 29.91 in1012.9 mb - 0.00 in0.0 mm 0.00 in0.0 mm
10:30 PM 75.8°F24.3°C 70.3°F21.3°C 83% Calm Calm -- 29.91 in1012.9 mb - 0.00 in0.0 mm 0.00 in0.0 mm
10:45 PM 75.5°F24.2°C 70.3°F21.3°C 84% Calm Calm -- 29.89 in1012.2 mb - 0.00 in0.0 mm 0.00 in0.0 mm
11:00 PM 74.8°F23.8°C 69.6°F20.9°C 84% Calm Calm -- 29.89 in1012.2 mb - 0.00 in0.0 mm 0.00 in0.0 mm
11:15 PM 74.5°F23.6°C 69.3°F20.7°C 84% Calm Calm -- 29.89 in1012.2 mb - 0.00 in0.0 mm 0.00 in0.0 mm
11:30 PM 74.3°F23.5°C 68.8°F20.4°C 83% Calm Calm -- 29.90 in1012.5 mb - 0.00 in0.0 mm 0.00 in0.0 mm
11:45 PM 73.9°F23.3°C 69.1°F20.6°C 85% Calm Calm -- 29.90 in1012.5 mb - 0.00 in0.0 mm 0.00 in0.0 mm